Terminal Aerodrome Forecast
Issued by NWS

Home | Current Version | Previous Version | Text Only | Print | Product List | Glossary On
Versions: 1 2 3 4 5 6 7 8 9 10 11 12 13 14 15
980
FTUS45 KRIW 131720
TAFCOD
TAF
KCOD 131720Z 1318/1418 25016G26KT P6SM SCT070 BKN150 WS020/27040KT
     FM132000 28013G21KT P6SM SCT080 WS020/29040KT
     FM140100 27010KT P6SM SCT080 BKN130
     FM140700 23007KT P6SM BKN150
      AMD LTD TO CLD VIS AND WIND=

USA.gov is the U.S. government's official web portal to all federal, state and local government web resources and services.